Bonaparte, Iowa
Current Conditions -  °F | °C
As of 7:55 PM on Wednesday 26 Nov 2014 (Local Time) from KMPZ Reporting Station
Light Snow Light Snow  
Wind Chill: 19°   Ceiling: 2700
Heat Index: 28°   Visibility: 3mi
Dew Point: 28°   Wind: 8mph
Humidity: 100%   Direction: 10°N
Pressure: 30.2"   Gusts: NA
Location:  40.7°N, 91.8°W
Report Text: KMPZ 270155Z AUTO 01007KT 3SM -SN SCT015 OVC027 M02/M02 A3020 RMK AO2 T10251025
Loading
Personal Weather Stations






























Interactive Weather Map New forecast layout! Learn more

10-Day Weather Forecast

Advertisements
Track Severe Weather on mobile